Baring, Washington
Current Conditions -  °F | °C
As of 8:53 AM on Saturday 22 Nov 2014 (Local Time) from KPAE Reporting Station
Scattered Clouds Scattered Clouds  
Wind Chill: 39°   Ceiling: Unl
Heat Index: 44°   Visibility: 10mi
Dew Point: 41°   Wind: 9mph
Humidity: 89%   Direction: 200°SSW
Pressure: 29.71"   Gusts: NA
Location:  47.77°N, 121.49°W
Report Text: KPAE 221653Z 20008KT 10SM SCT070 07/05 A2971 RMK AO2 SLP063 T00670050
Loading
Personal Weather Stations






























Interactive Weather Map New forecast layout! Learn more

10-Day Weather Forecast

Advertisements
Track Severe Weather on mobile